createdAt,value
2023-01-31T00:02:22.692Z,2.76
2023-01-31T00:06:50.892Z,2.75
2023-01-31T00:10:53.060Z,2.77
2023-01-31T00:14:54.936Z,2.77
2023-01-31T00:18:56.960Z,2.82
2023-01-31T00:22:58.899Z,2.80
2023-01-31T00:27:00.825Z,2.74
2023-01-31T00:31:02.680Z,2.94
2023-01-31T00:35:05.248Z,2.91
2023-01-31T00:39:08.149Z,2.88
2023-01-31T00:43:10.171Z,2.87
2023-01-31T00:47:12.052Z,3.07
2023-01-31T00:51:14.528Z,3.16
2023-01-31T00:55:16.624Z,3.19
2023-01-31T00:59:18.843Z,3.06
2023-01-31T01:03:20.862Z,3.09
2023-01-31T01:07:22.923Z,3.19
2023-01-31T01:11:31.137Z,3.15
2023-01-31T01:15:36.829Z,3.13
2023-01-31T01:19:38.904Z,2.97
2023-01-31T01:23:41.577Z,2.98
2023-01-31T01:27:43.529Z,2.99
2023-01-31T01:31:46.708Z,3.09
2023-01-31T01:35:48.686Z,3.05
2023-01-31T01:39:52.310Z,3.04
2023-01-31T01:43:57.296Z,3.03
2023-01-31T01:48:03.713Z,3.05
2023-01-31T01:52:09.919Z,2.95
2023-01-31T01:56:21.813Z,2.89
2023-01-31T02:00:28.637Z,2.98
2023-01-31T02:04:38.802Z,3.01
2023-01-31T02:08:42.577Z,2.99
2023-01-31T02:12:46.342Z,3.10
2023-01-31T02:16:48.308Z,3.10
2023-01-31T02:21:27.465Z,3.13
2023-01-31T02:25:49.084Z,3.18
2023-01-31T02:30:38.293Z,3.33
2023-01-31T02:35:24.920Z,3.37
2023-01-31T02:39:46.708Z,3.32
2023-01-31T02:44:16.174Z,3.31
2023-01-31T02:48:33.485Z,3.31
2023-01-31T02:52:40.986Z,3.33
2023-01-31T02:56:47.270Z,3.41
2023-01-31T03:00:50.919Z,3.58
2023-01-31T03:04:53.222Z,3.45
2023-01-31T03:09:04.452Z,3.50
2023-01-31T03:13:28.089Z,3.51
2023-01-31T03:17:51.377Z,3.61
2023-01-31T03:22:00.511Z,3.59
2023-01-31T03:26:06.417Z,3.66
2023-01-31T03:30:14.005Z,3.54
2023-01-31T03:34:17.720Z,3.46
2023-01-31T03:38:35.099Z,3.62
2023-01-31T03:42:45.447Z,3.54
2023-01-31T03:46:55.356Z,3.58
2023-01-31T03:51:01.479Z,3.41
2023-01-31T03:55:46.571Z,3.58
2023-01-31T03:59:54.745Z,3.53
2023-01-31T04:03:59.544Z,3.58
2023-01-31T04:08:02.152Z,3.43
2023-01-31T04:12:06.624Z,3.28
2023-01-31T04:16:08.776Z,3.20
2023-01-31T04:20:13.088Z,3.46
2023-01-31T04:24:15.054Z,3.54
2023-01-31T04:28:17.088Z,3.46
2023-01-31T04:32:19.090Z,3.50
2023-01-31T04:36:21.044Z,3.50
2023-01-31T04:40:23.192Z,3.52
2023-01-31T04:44:25.087Z,3.47
2023-01-31T04:48:28.986Z,3.53
2023-01-31T04:52:31.730Z,3.45
2023-01-31T04:56:34.019Z,3.40
2023-01-31T05:00:36.569Z,3.40
2023-01-31T05:04:38.609Z,3.27
2023-01-31T05:08:40.297Z,3.37
2023-01-31T05:12:42.233Z,3.22
2023-01-31T05:16:47.166Z,3.20
2023-01-31T05:20:50.178Z,3.36
2023-01-31T05:24:52.367Z,3.34
2023-01-31T05:28:54.382Z,3.16
2023-01-31T05:32:56.583Z,3.38
2023-01-31T05:36:59.374Z,3.47
2023-01-31T05:41:01.820Z,3.44
2023-01-31T05:45:04.423Z,3.49
2023-01-31T05:49:06.528Z,3.48
2023-01-31T05:53:09.431Z,3.52
2023-01-31T05:57:11.480Z,3.33
2023-01-31T06:01:13.397Z,3.27
2023-01-31T06:05:15.758Z,3.14
2023-01-31T06:09:17.677Z,3.13
2023-01-31T06:13:19.579Z,3.09
2023-01-31T06:17:24.058Z,3.11
2023-01-31T06:21:26.006Z,3.03
2023-01-31T06:25:28.025Z,3.30
2023-01-31T06:29:30.534Z,3.34
2023-01-31T06:33:44.739Z,3.37
2023-01-31T06:37:48.648Z,3.50
2023-01-31T06:41:50.636Z,3.40
2023-01-31T06:45:52.702Z,3.21
2023-01-31T06:49:54.526Z,3.29
2023-01-31T06:53:56.876Z,2.93
2023-01-31T06:57:59.000Z,3.29
2023-01-31T07:02:00.946Z,3.36
2023-01-31T07:06:03.884Z,3.31
2023-01-31T07:10:06.567Z,3.40
2023-01-31T07:14:08.634Z,3.47
2023-01-31T07:18:12.266Z,3.59
2023-01-31T07:22:14.329Z,3.41
2023-01-31T07:26:16.821Z,3.52
2023-01-31T07:30:19.150Z,3.26
2023-01-31T07:34:23.109Z,3.33
2023-01-31T07:38:25.129Z,3.41
2023-01-31T07:42:34.706Z,3.57
2023-01-31T07:46:42.146Z,3.47
2023-01-31T07:50:45.591Z,3.49
2023-01-31T07:54:47.648Z,3.56
2023-01-31T07:58:50.548Z,3.66
2023-01-31T08:03:11.009Z,3.54
2023-01-31T08:07:13.003Z,3.52
2023-01-31T08:11:15.212Z,3.58
2023-01-31T08:15:17.206Z,3.60
2023-01-31T08:19:19.204Z,3.57
2023-01-31T08:23:21.117Z,3.53
2023-01-31T08:27:23.120Z,3.48
2023-01-31T08:31:26.762Z,3.62
2023-01-31T08:35:29.297Z,3.65
2023-01-31T08:39:31.373Z,3.71
2023-01-31T08:43:42.268Z,3.87
2023-01-31T08:47:47.895Z,3.88
2023-01-31T08:51:49.871Z,3.81
2023-01-31T08:55:51.880Z,3.82
2023-01-31T08:59:53.900Z,3.70
2023-01-31T09:03:57.315Z,3.87
2023-01-31T09:07:59.480Z,3.85
2023-01-31T09:12:03.685Z,3.83
2023-01-31T09:16:11.364Z,4.05
2023-01-31T09:20:13.404Z,4.02
2023-01-31T09:24:15.463Z,4.05
2023-01-31T09:28:17.507Z,4.02
2023-01-31T09:32:21.263Z,4.23
2023-01-31T09:36:24.900Z,4.35
2023-01-31T09:40:32.490Z,4.09
2023-01-31T09:44:42.102Z,4.09
2023-01-31T09:48:48.082Z,4.14
2023-01-31T09:52:50.368Z,4.27
2023-01-31T09:57:01.373Z,4.26
2023-01-31T10:01:19.828Z,4.10
2023-01-31T10:05:39.660Z,4.05
2023-01-31T10:09:51.891Z,4.18
2023-01-31T10:13:58.606Z,4.29
2023-01-31T10:18:09.397Z,4.48
2023-01-31T10:22:19.303Z,4.41
2023-01-31T10:26:30.369Z,4.36
2023-01-31T10:30:51.944Z,4.19
2023-01-31T10:34:59.101Z,4.01
2023-01-31T10:39:07.570Z,4.07
2023-01-31T10:43:20.245Z,4.09
2023-01-31T10:47:31.523Z,4.18
2023-01-31T10:51:52.807Z,4.11
2023-01-31T10:56:04.226Z,4.19
2023-01-31T11:00:07.309Z,4.16
2023-01-31T11:04:24.343Z,4.14
2023-01-31T11:08:53.428Z,4.40
2023-01-31T11:13:01.908Z,4.23
2023-01-31T11:17:14.814Z,4.31
2023-01-31T11:21:24.685Z,4.41
2023-01-31T11:25:28.756Z,4.33
2023-01-31T11:29:38.141Z,4.23
2023-01-31T11:33:45.188Z,4.25
2023-01-31T11:37:54.241Z,4.38
2023-01-31T11:41:56.341Z,4.29
2023-01-31T11:46:04.189Z,4.14
2023-01-31T11:50:07.414Z,4.27
2023-01-31T11:54:18.290Z,4.26
2023-01-31T11:58:32.246Z,4.15
2023-01-31T12:02:41.741Z,4.23
2023-01-31T12:06:56.673Z,4.49
2023-01-31T12:11:00.169Z,4.38
2023-01-31T12:15:14.980Z,4.36
2023-01-31T12:19:30.160Z,4.53
2023-01-31T12:23:50.568Z,4.63
2023-01-31T12:28:17.436Z,4.64
2023-01-31T12:32:53.486Z,4.58
2023-01-31T12:37:22.085Z,4.71
2023-01-31T12:41:39.482Z,4.72
2023-01-31T12:45:46.228Z,4.80
2023-01-31T12:49:57.667Z,4.95
2023-01-31T12:54:16.769Z,5.01
2023-01-31T12:58:33.763Z,4.99
2023-01-31T13:03:00.021Z,4.76
2023-01-31T13:07:12.652Z,4.63
2023-01-31T13:11:26.789Z,4.25
2023-01-31T13:15:42.412Z,4.24
2023-01-31T13:19:53.655Z,4.21
2023-01-31T13:24:01.941Z,4.18
2023-01-31T13:28:32.245Z,3.96
2023-01-31T13:32:48.557Z,3.93
2023-01-31T13:37:02.105Z,3.89
2023-01-31T13:41:05.350Z,4.07
2023-01-31T13:45:11.167Z,4.01
2023-01-31T13:49:48.690Z,4.21
2023-01-31T13:53:56.245Z,4.11
2023-01-31T13:58:05.059Z,4.19
2023-01-31T14:02:18.243Z,3.75
2023-01-31T14:06:20.251Z,3.74
2023-01-31T14:10:29.105Z,3.79
2023-01-31T14:14:37.391Z,3.66
2023-01-31T14:18:44.637Z,3.51
2023-01-31T14:23:24.970Z,3.61
2023-01-31T14:27:42.898Z,3.48
2023-01-31T14:31:46.889Z,3.48
2023-01-31T14:36:19.506Z,3.42
2023-01-31T14:40:30.475Z,3.49
2023-01-31T14:44:51.859Z,3.35
2023-01-31T14:49:09.191Z,3.40
2023-01-31T14:53:41.400Z,3.39
2023-01-31T14:57:46.722Z,3.36
2023-01-31T15:01:49.220Z,3.29
2023-01-31T15:06:09.237Z,3.33
2023-01-31T15:10:49.901Z,3.11
2023-01-31T15:14:52.469Z,3.13
2023-01-31T15:19:01.309Z,3.13
2023-01-31T15:23:09.006Z,3.03
2023-01-31T15:27:19.477Z,3.24
2023-01-31T15:31:41.099Z,3.07
2023-01-31T15:35:53.258Z,3.06
2023-01-31T15:40:01.142Z,2.94
2023-01-31T15:44:22.692Z,2.76
2023-01-31T15:48:24.662Z,2.96
2023-01-31T15:52:28.474Z,2.90
2023-01-31T15:56:30.647Z,2.99
2023-01-31T16:00:35.619Z,2.95
2023-01-31T16:04:40.209Z,2.70
2023-01-31T16:08:42.195Z,2.83
2023-01-31T16:12:48.646Z,2.71
2023-01-31T16:16:55.804Z,2.76
2023-01-31T16:20:58.018Z,2.76
2023-01-31T16:25:02.617Z,2.85
2023-01-31T16:29:10.523Z,2.83
2023-01-31T16:33:23.170Z,2.82
2023-01-31T16:37:43.352Z,2.72
2023-01-31T16:41:52.114Z,2.60
2023-01-31T16:45:56.896Z,2.69
2023-01-31T16:50:42.397Z,2.59
2023-01-31T16:54:53.608Z,2.61
2023-01-31T16:58:59.317Z,2.57
2023-01-31T17:03:02.290Z,2.62
2023-01-31T17:07:06.578Z,2.67
2023-01-31T17:11:16.586Z,2.75
2023-01-31T17:15:26.023Z,2.86
2023-01-31T17:19:29.517Z,2.65
2023-01-31T17:23:31.812Z,2.55
2023-01-31T17:27:34.114Z,2.58
2023-01-31T17:31:36.251Z,2.54
2023-01-31T17:35:40.816Z,2.64
2023-01-31T17:39:43.412Z,2.64
2023-01-31T17:43:45.667Z,2.63
2023-01-31T17:47:48.039Z,2.37
2023-01-31T17:51:50.241Z,2.31
2023-01-31T17:55:52.444Z,2.31
2023-01-31T17:59:54.508Z,2.35
2023-01-31T18:03:58.320Z,2.19
2023-01-31T18:08:00.896Z,2.21
2023-01-31T18:12:03.065Z,2.40
2023-01-31T18:16:13.309Z,2.31
2023-01-31T18:20:17.335Z,2.30
2023-01-31T18:24:20.259Z,2.28
2023-01-31T18:28:22.703Z,2.25
2023-01-31T18:32:24.813Z,2.18
2023-01-31T18:36:27.073Z,2.14
2023-01-31T18:40:29.794Z,2.10
2023-01-31T18:44:32.640Z,2.13
2023-01-31T18:48:37.321Z,2.40
2023-01-31T18:52:43.840Z,2.39
2023-01-31T18:56:45.955Z,2.43
2023-01-31T19:00:48.179Z,2.55
2023-01-31T19:04:50.401Z,2.54
2023-01-31T19:08:54.918Z,2.53
2023-01-31T19:12:57.049Z,2.39
2023-01-31T19:16:59.623Z,2.33
2023-01-31T19:21:01.677Z,2.29
2023-01-31T19:25:05.502Z,2.16
2023-01-31T19:29:09.774Z,2.20
2023-01-31T19:33:12.012Z,2.26
2023-01-31T19:37:14.046Z,2.24
2023-01-31T19:41:22.140Z,2.19
2023-01-31T19:45:24.409Z,2.14
2023-01-31T19:49:26.655Z,2.23
2023-01-31T19:53:29.691Z,2.13
2023-01-31T19:57:31.863Z,2.29
2023-01-31T20:01:33.999Z,2.24
2023-01-31T20:05:36.218Z,2.28
2023-01-31T20:09:38.143Z,2.40
2023-01-31T20:13:40.241Z,2.31
2023-01-31T20:17:42.376Z,2.30
2023-01-31T20:21:45.634Z,2.42
2023-01-31T20:25:50.164Z,2.40
2023-01-31T20:29:52.454Z,2.38
2023-01-31T20:33:54.877Z,2.38
2023-01-31T20:37:57.009Z,2.51
2023-01-31T20:41:59.043Z,2.38
2023-01-31T20:46:03.071Z,2.45
2023-01-31T20:50:05.510Z,2.38
2023-01-31T20:54:07.563Z,2.31
2023-01-31T20:58:09.540Z,2.33
2023-01-31T21:02:11.911Z,2.46
2023-01-31T21:06:13.924Z,2.34
2023-01-31T21:10:16.127Z,2.33
2023-01-31T21:14:19.154Z,2.33
2023-01-31T21:18:22.625Z,2.36
2023-01-31T21:22:24.585Z,2.28
2023-01-31T21:26:27.271Z,2.32
2023-01-31T21:30:29.672Z,2.44
2023-01-31T21:34:31.601Z,2.47
2023-01-31T21:38:33.584Z,2.49
2023-01-31T21:42:35.733Z,2.57
2023-01-31T21:46:37.891Z,2.41
2023-01-31T21:50:39.853Z,2.53
2023-01-31T21:54:41.842Z,2.47
2023-01-31T21:58:44.549Z,2.59
2023-01-31T22:02:51.463Z,2.64
2023-01-31T22:06:53.917Z,2.59
2023-01-31T22:11:03.796Z,2.47
2023-01-31T22:15:05.880Z,2.05
2023-01-31T22:19:09.505Z,1.83
2023-01-31T22:23:11.482Z,1.78
2023-01-31T22:27:13.641Z,1.71
2023-01-31T22:31:15.982Z,1.71
2023-01-31T22:35:17.959Z,1.68
2023-01-31T22:39:19.953Z,1.69
2023-01-31T22:43:21.894Z,1.87
2023-01-31T22:47:24.932Z,1.89
2023-01-31T22:51:28.695Z,1.85
2023-01-31T22:55:30.777Z,2.05
2023-01-31T22:59:32.858Z,2.11
2023-01-31T23:03:34.997Z,2.16
2023-01-31T23:07:36.678Z,2.24
2023-01-31T23:11:38.928Z,2.18
2023-01-31T23:15:40.964Z,2.32
2023-01-31T23:19:43.027Z,2.42
2023-01-31T23:23:46.029Z,2.53
2023-01-31T23:27:48.525Z,2.56
2023-01-31T23:31:50.521Z,2.55
2023-01-31T23:35:52.898Z,2.57
2023-01-31T23:39:54.876Z,2.59
2023-01-31T23:43:56.826Z,2.85
2023-01-31T23:47:58.858Z,2.87
2023-01-31T23:52:00.806Z,2.76
2023-01-31T23:56:02.748Z,2.82
